Kyoto Maru — JD3149 — position and weather

sailwx.info

Track history (hours):
 
Tides and Currents Weather Stations Pressure Air Temp Water Temp Dewpoint Dewpoint Depression Visibility Wind Speed Wind Dir Waves Ship Positions

Kyoto Maru

Last reported at 2014-Oct-21 03:33 UTC. Time now 2014-Oct-21 03:49 UTC.
Position N 35°27' E 139°39'.

Length 34 m; draft 3.8 m.

Type: Tug. MMSI: 431002219.

Date/timePositionNaut miles runAvg speedWind from/ knotsBaromVisibWave heightAir tempDewpointWater temp
2014-Oct-21 03:33N 35°27' E 139°39'0 0.0
2014-Oct-21 02:33N 35°27' E 139°39'0 0.0
2014-Oct-21 01:34N 35°27' E 139°39'2 1.6
2014-Oct-21 00:33N 35°28' E 139°39'3 3.4
2014-Oct-20 23:33N 35°26' E 139°42'2 2.3
2014-Oct-20 22:33N 35°27' E 139°39'0 0.0
2014-Oct-20 21:33N 35°27' E 139°39'0 0.0
2014-Oct-20 20:33N 35°27' E 139°39'0 0.0
2014-Oct-20 19:33N 35°27' E 139°39'0 0.0
2014-Oct-20 18:34N 35°27' E 139°39'0 0.0
2014-Oct-20 17:34N 35°27' E 139°39'0 0.0
2014-Oct-20 16:34N 35°27' E 139°39'0 0.0
2014-Oct-20 15:33N 35°27' E 139°39'0 0.0
2014-Oct-20 14:33N 35°27' E 139°39'0 0.0
2014-Oct-20 13:34N 35°27' E 139°39'0 0.0
2014-Oct-20 12:34N 35°27' E 139°39'0 0.0
2014-Oct-20 11:33N 35°27' E 139°39'0 0.0
2014-Oct-20 10:33N 35°27' E 139°39'0 0.0
2014-Oct-20 09:34N 35°27' E 139°39'1 0.6
2014-Oct-20 08:34N 35°27' E 139°40'1 0.7
2014-Oct-20 07:33N 35°27' E 139°39'2 1.8
2014-Oct-20 06:33N 35°28' E 139°41'2 2.0
2014-Oct-20 05:34N 35°26' E 139°42'0 0.0
2014-Oct-20 04:33N 35°26' E 139°42'0 0.0
2014-Oct-20 03:33N 35°26' E 139°42'0 0.0
2014-Oct-20 02:34N 35°26' E 139°42'0 0.0
2014-Oct-20 01:34N 35°26' E 139°42'0 0.0
2014-Oct-20 00:33N 35°26' E 139°42'1 1.2
2014-Oct-19 23:33N 35°25' E 139°41'1 1.4
2014-Oct-19 22:34N 35°26' E 139°42'2 1.9
2014-Oct-19 21:33N 35°27' E 139°39'0 0.0
2014-Oct-19 20:33N 35°27' E 139°39'0 0.0
2014-Oct-19 19:34N 35°27' E 139°39'0 0.0
2014-Oct-19 18:33N 35°27' E 139°39'0 0.0
2014-Oct-19 17:33N 35°27' E 139°39'0 0.0
2014-Oct-19 16:33N 35°27' E 139°39'0 0.0
2014-Oct-19 15:34N 35°27' E 139°39'0 0.0
2014-Oct-19 14:33N 35°27' E 139°39'0 0.0
2014-Oct-19 13:34N 35°27' E 139°39'0 0.0
2014-Oct-19 12:34N 35°27' E 139°39'0 0.0
2014-Oct-19 11:34N 35°27' E 139°39'0 0.0
2014-Oct-19 10:34N 35°27' E 139°39'0 0.0
2014-Oct-19 09:33N 35°27' E 139°39'2 1.8
2014-Oct-19 08:33N 35°28' E 139°41'2 1.9
2014-Oct-19 07:33N 35°27' E 139°43'2 2.1
2014-Oct-19 06:34N 35°27' E 139°40'1 0.5
2014-Oct-19 05:34N 35°27' E 139°39'0 0.0
2014-Oct-19 04:33N 35°27' E 139°39'0 0.0
2014-Oct-19 03:33N 35°27' E 139°39'0 0.0
2014-Oct-19 02:33N 35°27' E 139°39'2 2.0
2014-Oct-19 01:34N 35°27' E 139°42'2 2.1
2014-Oct-19 00:33N 35°27' E 139°39'0 0.1
2014-Oct-18 23:33N 35°27' E 139°39'0 0.0
2014-Oct-18 22:33N 35°27' E 139°39'0 0.0
2014-Oct-18 21:33N 35°27' E 139°39'0 0.0
2014-Oct-18 20:33N 35°27' E 139°39'0 0.0
2014-Oct-18 19:34N 35°27' E 139°39'0 0.0
2014-Oct-18 18:33N 35°27' E 139°39'0 0.0
2014-Oct-18 17:33N 35°27' E 139°39'0 0.0
2014-Oct-18 16:34N 35°27' E 139°39'0 0.0
2014-Oct-18 15:34N 35°27' E 139°39'0 0.0
2014-Oct-18 14:33N 35°27' E 139°39'0 0.0
2014-Oct-18 13:34N 35°27' E 139°39'0 0.0
2014-Oct-18 12:34N 35°27' E 139°39'0 0.0
2014-Oct-18 11:33N 35°27' E 139°39'0 0.0
2014-Oct-18 10:33N 35°27' E 139°39'0 0.0
2014-Oct-18 09:33N 35°27' E 139°39'0 0.0
2014-Oct-18 08:33N 35°27' E 139°39'0 0.0
2014-Oct-18 07:33N 35°27' E 139°39'0 0.0
2014-Oct-18 06:33N 35°27' E 139°39'0 0.0
2014-Oct-18 05:34N 35°27' E 139°39'0 0.0
2014-Oct-18 04:33N 35°27' E 139°39'0 0.0
2014-Oct-18 03:33N 35°27' E 139°39'0 0.0
2014-Oct-18 02:34N 35°27' E 139°39'0 0.0
2014-Oct-18 01:33N 35°27' E 139°39'0 0.0
2014-Oct-18 00:33N 35°27' E 139°39'0 0.0
2014-Oct-17 23:33N 35°27' E 139°39'0 0.1
2014-Oct-17 22:33N 35°27' E 139°39'3 3.3
2014-Oct-17 21:33N 35°24' E 139°40'0 0.3
2014-Oct-17 20:33N 35°24' E 139°41'0 0.4
2014-Oct-17 19:34N 35°24' E 139°41'0 0.0
2014-Oct-17 18:33N 35°24' E 139°41'2 2.4
2014-Oct-17 17:33N 35°27' E 139°41'3 2.6
2014-Oct-17 16:33N 35°26' E 139°44'3 2.9
2014-Oct-17 15:33N 35°26' E 139°41'0 0.3
2014-Oct-17 14:33N 35°26' E 139°41'1 0.5
2014-Oct-17 13:33N 35°27' E 139°40'1 0.8
2014-Oct-17 12:33N 35°28' E 139°41'0 0.0
2014-Oct-17 11:33N 35°28' E 139°41'0 0.0
2014-Oct-17 10:34N 35°28' E 139°41'0 0.0
2014-Oct-17 09:34N 35°28' E 139°41'1 1.0
2014-Oct-17 08:33N 35°27' E 139°41'2 1.6
2014-Oct-17 07:34N 35°27' E 139°39'0 0.3
2014-Oct-17 06:33N 35°27' E 139°39'0 0.0
2014-Oct-17 05:33N 35°27' E 139°39'0 0.0
2014-Oct-17 04:34N 35°27' E 139°39'0 0.0
2014-Oct-17 03:33N 35°27' E 139°39'0 0.0
2014-Oct-17 02:33N 35°27' E 139°39'0 0.0
2014-Oct-17 01:33N 35°27' E 139°39'0 0.0
2014-Oct-17 00:34N 35°27' E 139°39'0 0.0
2014-Oct-16 23:34N 35°27' E 139°39'0 0.0
2014-Oct-16 22:33N 35°27' E 139°39'0 0.0
2014-Oct-16 21:33N 35°27' E 139°39'0 0.0
2014-Oct-16 20:33N 35°27' E 139°39'0 0.0
2014-Oct-16 19:33N 35°27' E 139°39'0 0.0
2014-Oct-16 18:33N 35°27' E 139°39'0 0.0
2014-Oct-16 17:33N 35°27' E 139°39'0 0.0
2014-Oct-16 16:33N 35°27' E 139°39'0 0.0
2014-Oct-16 15:34N 35°27' E 139°39'0 0.0
2014-Oct-16 14:33N 35°27' E 139°39'0 0.0
2014-Oct-16 13:33N 35°27' E 139°39'0 0.0
2014-Oct-16 12:33N 35°27' E 139°39'0 0.0
2014-Oct-16 11:33N 35°27' E 139°39'0 0.0
2014-Oct-16 10:33N 35°27' E 139°39'0 0.0
2014-Oct-16 09:34N 35°27' E 139°39'0 0.0
2014-Oct-16 08:33N 35°27' E 139°39'0 0.0
2014-Oct-16 07:34N 35°27' E 139°39'2 1.9
2014-Oct-16 06:34N 35°28' E 139°41'1 0.7
2014-Oct-16 05:33N 35°28' E 139°41'1 0.9
2014-Oct-16 04:33N 35°27' E 139°41'1 1.4
2014-Oct-16 03:33N 35°26' E 139°42'1 1.0
2014-Oct-16 02:34N 35°27' E 139°42'0 0.0
2014-Oct-16 01:33N 35°27' E 139°42'1 0.9
2014-Oct-16 00:33N 35°28' E 139°42'2 0.4
2014-Oct-15 18:23N 35°27' E 139°39'0 0.0
2014-Oct-15 17:34N 35°27' E 139°39'0 0.0
2014-Oct-15 16:33N 35°27' E 139°39'0 0.0
2014-Oct-15 15:33N 35°27' E 139°39'0 0.0
2014-Oct-15 14:33N 35°27' E 139°39'0 0.0
2014-Oct-15 13:34N 35°27' E 139°39'0 0.0
2014-Oct-15 12:34N 35°27' E 139°39'0 0.0
2014-Oct-15 11:33N 35°27' E 139°39'0 0.0
2014-Oct-15 10:33N 35°27' E 139°39'2 1.6
2014-Oct-15 09:34N 35°27' E 139°41'3 2.9
2014-Oct-15 08:33N 35°25' E 139°43'2 2.2
2014-Oct-15 07:33N 35°27' E 139°42'0 0.0
2014-Oct-15 06:34N 35°27' E 139°42'5 5.1
2014-Oct-15 05:31N 35°31' E 139°46'1 0.9
2014-Oct-15 04:32N 35°30' E 139°47'6 6.3
2014-Oct-15 03:33N 35°24' E 139°45'4 3.5
2014-Oct-15 02:33N 35°26' E 139°42'2 2.3
2014-Oct-15 01:33N 35°27' E 139°39'0 0.0
2014-Oct-15 00:33N 35°27' E 139°39'3 2.6
2014-Oct-14 23:33N 35°25' E 139°42'2 1.9
2014-Oct-14 22:33N 35°24' E 139°41'3 2.7
2014-Oct-14 21:33N 35°26' E 139°42'2 2.0
2014-Oct-14 20:33N 35°27' E 139°39'0 0.0
2014-Oct-14 19:33N 35°27' E 139°39'0 0.0
2014-Oct-14 18:34N 35°27' E 139°39'0 0.0
2014-Oct-14 17:33N 35°27' E 139°39'0 0.0
2014-Oct-14 16:33N 35°27' E 139°39'0 0.0
2014-Oct-14 15:34N 35°27' E 139°39'0 0.0
2014-Oct-14 14:33N 35°27' E 139°39'0 0.0
2014-Oct-14 13:34N 35°27' E 139°39'0 0.0
2014-Oct-14 12:34N 35°27' E 139°39'0 0.0
2014-Oct-14 11:33N 35°27' E 139°39'0 0.0
2014-Oct-14 10:33N 35°27' E 139°39'0 0.0
2014-Oct-14 09:33N 35°27' E 139°39'0 0.0
2014-Oct-14 08:33N 35°27' E 139°39'0 0.0
2014-Oct-14 07:33N 35°27' E 139°39'0 0.0
2014-Oct-14 06:33N 35°27' E 139°39'0 0.0
2014-Oct-14 05:33N 35°27' E 139°39'1 0.8
2014-Oct-14 04:34N 35°27' E 139°40'1 0.7
2014-Oct-14 03:33N 35°27' E 139°39'0 0.0
2014-Oct-14 02:33N 35°27' E 139°39'0 0.0
2014-Oct-14 01:34N 35°27' E 139°39'0 0.0
2014-Oct-14 00:33N 35°27' E 139°39'0 0.0
2014-Oct-13 23:30N 35°27' E 139°39'0 0.0
2014-Oct-13 22:33N 35°27' E 139°39'0 0.0
2014-Oct-13 21:31N 35°27' E 139°39'0 0.0
2014-Oct-13 20:31N 35°27' E 139°39'0 0.0
2014-Oct-13 19:33N 35°27' E 139°39'0 0.0
2014-Oct-13 18:34N 35°27' E 139°39'0 0.0
2014-Oct-13 17:32N 35°27' E 139°39'0 0.0
2014-Oct-13 16:32N 35°27' E 139°39'0 0.0
2014-Oct-13 15:18N 35°27' E 139°39'0 0.0
2014-Oct-13 14:07N 35°27' E 139°39'0 0.0
2014-Oct-13 13:33N 35°27' E 139°39'0 0.0
2014-Oct-12 20:34N 35°27' E 139°39'0 0.0
2014-Oct-12 19:33N 35°27' E 139°39'0 0.0
2014-Oct-12 18:33N 35°27' E 139°39'0 0.0
2014-Oct-12 17:33N 35°27' E 139°39'0 0.0
2014-Oct-12 16:33N 35°27' E 139°39'0 0.0
2014-Oct-12 15:33N 35°27' E 139°39'0 0.0
2014-Oct-12 14:33N 35°27' E 139°39'0 0.0
2014-Oct-12 13:33N 35°27' E 139°39'0 0.0
2014-Oct-12 12:33N 35°27' E 139°39'0 0.0
2014-Oct-12 11:33N 35°27' E 139°39'0 0.0
2014-Oct-12 10:34N 35°27' E 139°39'0 0.0
2014-Oct-12 09:33N 35°27' E 139°39'0 0.0
2014-Oct-12 08:33N 35°27' E 139°39'0 0.0
2014-Oct-12 07:33N 35°27' E 139°39'0 0.0
2014-Oct-12 06:33N 35°27' E 139°39'0 0.0
2014-Oct-12 05:34N 35°27' E 139°39'0 0.0
2014-Oct-12 04:33N 35°27' E 139°39'0 0.0
2014-Oct-12 03:34N 35°27' E 139°39'0 0.0
2014-Oct-12 02:33N 35°27' E 139°39'0 0.0
2014-Oct-12 01:34N 35°27' E 139°39'0 0.0
2014-Oct-12 00:33N 35°27' E 139°39'0 0.0
2014-Oct-11 23:34N 35°27' E 139°39'0 0.0
2014-Oct-11 22:33N 35°27' E 139°39'0 0.0
2014-Oct-11 21:33N 35°27' E 139°39'0 0.0
2014-Oct-11 20:33N 35°27' E 139°39'0 0.0
2014-Oct-11 19:33N 35°27' E 139°39'0 0.0
2014-Oct-11 18:33N 35°27' E 139°39'0 0.0
2014-Oct-11 17:33N 35°27' E 139°39'0 0.0
2014-Oct-11 16:33N 35°27' E 139°39'0 0.0
2014-Oct-11 15:33N 35°27' E 139°39'0 0.0
2014-Oct-11 14:34N 35°27' E 139°39'0 0.0
2014-Oct-11 13:33N 35°27' E 139°39'0 0.0
2014-Oct-11 12:33N 35°27' E 139°39'0 0.0
2014-Oct-11 11:33N 35°27' E 139°39'0 0.0
2014-Oct-11 10:33N 35°27' E 139°39'0 0.0
2014-Oct-11 09:33N 35°27' E 139°39'0 0.0
2014-Oct-11 08:33N 35°27' E 139°39'0 0.0
2014-Oct-11 07:34N 35°27' E 139°39'0 0.0
2014-Oct-11 06:33N 35°27' E 139°39'0 0.0
2014-Oct-11 05:34N 35°27' E 139°39'0 0.0
2014-Oct-11 04:33N 35°27' E 139°39'0 0.0
2014-Oct-11 03:33N 35°27' E 139°39'  
Track history (hours):
 
Tides and Currents Weather Stations Pressure Air Temp Water Temp Dewpoint Dewpoint Depression Visibility Wind Speed Wind Dir Waves Ship Positions

Kyoto Maru

Last reported at 2014-Oct-21 03:33 UTC. Time now 2014-Oct-21 03:49 UTC.
Position N 35°27' E 139°39'.

Length 34 m; draft 3.8 m.

Type: Tug. MMSI: 431002219.

Date/timePositionNaut miles runAvg speedWind from/ knotsBaromVisibWave heightAir tempDewpointWater temp
2014-Oct-21 03:33N 35°27' E 139°39'0 0.0
2014-Oct-21 02:33N 35°27' E 139°39'0 0.0
2014-Oct-21 01:34N 35°27' E 139°39'2 1.6
2014-Oct-21 00:33N 35°28' E 139°39'3 3.4
2014-Oct-20 23:33N 35°26' E 139°42'2 2.3
2014-Oct-20 22:33N 35°27' E 139°39'0 0.0
2014-Oct-20 21:33N 35°27' E 139°39'0 0.0
2014-Oct-20 20:33N 35°27' E 139°39'0 0.0
2014-Oct-20 19:33N 35°27' E 139°39'0 0.0
2014-Oct-20 18:34N 35°27' E 139°39'0 0.0
2014-Oct-20 17:34N 35°27' E 139°39'0 0.0
2014-Oct-20 16:34N 35°27' E 139°39'0 0.0
2014-Oct-20 15:33N 35°27' E 139°39'0 0.0
2014-Oct-20 14:33N 35°27' E 139°39'0 0.0
2014-Oct-20 13:34N 35°27' E 139°39'0 0.0
2014-Oct-20 12:34N 35°27' E 139°39'0 0.0
2014-Oct-20 11:33N 35°27' E 139°39'0 0.0
2014-Oct-20 10:33N 35°27' E 139°39'0 0.0
2014-Oct-20 09:34N 35°27' E 139°39'1 0.6
2014-Oct-20 08:34N 35°27' E 139°40'1 0.7
2014-Oct-20 07:33N 35°27' E 139°39'2 1.8
2014-Oct-20 06:33N 35°28' E 139°41'2 2.0
2014-Oct-20 05:34N 35°26' E 139°42'0 0.0
2014-Oct-20 04:33N 35°26' E 139°42'0 0.0
2014-Oct-20 03:33N 35°26' E 139°42'0 0.0
2014-Oct-20 02:34N 35°26' E 139°42'0 0.0
2014-Oct-20 01:34N 35°26' E 139°42'0 0.0
2014-Oct-20 00:33N 35°26' E 139°42'1 1.2
2014-Oct-19 23:33N 35°25' E 139°41'1 1.4
2014-Oct-19 22:34N 35°26' E 139°42'2 1.9
2014-Oct-19 21:33N 35°27' E 139°39'0 0.0
2014-Oct-19 20:33N 35°27' E 139°39'0 0.0
2014-Oct-19 19:34N 35°27' E 139°39'0 0.0
2014-Oct-19 18:33N 35°27' E 139°39'0 0.0
2014-Oct-19 17:33N 35°27' E 139°39'0 0.0
2014-Oct-19 16:33N 35°27' E 139°39'0 0.0
2014-Oct-19 15:34N 35°27' E 139°39'0 0.0
2014-Oct-19 14:33N 35°27' E 139°39'0 0.0
2014-Oct-19 13:34N 35°27' E 139°39'0 0.0
2014-Oct-19 12:34N 35°27' E 139°39'0 0.0
2014-Oct-19 11:34N 35°27' E 139°39'0 0.0
2014-Oct-19 10:34N 35°27' E 139°39'0 0.0
2014-Oct-19 09:33N 35°27' E 139°39'2 1.8
2014-Oct-19 08:33N 35°28' E 139°41'2 1.9
2014-Oct-19 07:33N 35°27' E 139°43'2 2.1
2014-Oct-19 06:34N 35°27' E 139°40'1 0.5
2014-Oct-19 05:34N 35°27' E 139°39'0 0.0
2014-Oct-19 04:33N 35°27' E 139°39'0 0.0
2014-Oct-19 03:33N 35°27' E 139°39'0 0.0
2014-Oct-19 02:33N 35°27' E 139°39'2 2.0
2014-Oct-19 01:34N 35°27' E 139°42'2 2.1
2014-Oct-19 00:33N 35°27' E 139°39'0 0.1
2014-Oct-18 23:33N 35°27' E 139°39'0 0.0
2014-Oct-18 22:33N 35°27' E 139°39'0 0.0
2014-Oct-18 21:33N 35°27' E 139°39'0 0.0
2014-Oct-18 20:33N 35°27' E 139°39'0 0.0
2014-Oct-18 19:34N 35°27' E 139°39'0 0.0
2014-Oct-18 18:33N 35°27' E 139°39'0 0.0
2014-Oct-18 17:33N 35°27' E 139°39'0 0.0
2014-Oct-18 16:34N 35°27' E 139°39'0 0.0
2014-Oct-18 15:34N 35°27' E 139°39'0 0.0
2014-Oct-18 14:33N 35°27' E 139°39'0 0.0
2014-Oct-18 13:34N 35°27' E 139°39'0 0.0
2014-Oct-18 12:34N 35°27' E 139°39'0 0.0
2014-Oct-18 11:33N 35°27' E 139°39'0 0.0
2014-Oct-18 10:33N 35°27' E 139°39'0 0.0
2014-Oct-18 09:33N 35°27' E 139°39'0 0.0
2014-Oct-18 08:33N 35°27' E 139°39'0 0.0
2014-Oct-18 07:33N 35°27' E 139°39'0 0.0
2014-Oct-18 06:33N 35°27' E 139°39'0 0.0
2014-Oct-18 05:34N 35°27' E 139°39'0 0.0
2014-Oct-18 04:33N 35°27' E 139°39'0 0.0
2014-Oct-18 03:33N 35°27' E 139°39'0 0.0
2014-Oct-18 02:34N 35°27' E 139°39'0 0.0
2014-Oct-18 01:33N 35°27' E 139°39'0 0.0
2014-Oct-18 00:33N 35°27' E 139°39'0 0.0
2014-Oct-17 23:33N 35°27' E 139°39'0 0.1
2014-Oct-17 22:33N 35°27' E 139°39'3 3.3
2014-Oct-17 21:33N 35°24' E 139°40'0 0.3
2014-Oct-17 20:33N 35°24' E 139°41'0 0.4
2014-Oct-17 19:34N 35°24' E 139°41'0 0.0
2014-Oct-17 18:33N 35°24' E 139°41'2 2.4
2014-Oct-17 17:33N 35°27' E 139°41'3 2.6
2014-Oct-17 16:33N 35°26' E 139°44'3 2.9
2014-Oct-17 15:33N 35°26' E 139°41'0 0.3
2014-Oct-17 14:33N 35°26' E 139°41'1 0.5
2014-Oct-17 13:33N 35°27' E 139°40'1 0.8
2014-Oct-17 12:33N 35°28' E 139°41'0 0.0
2014-Oct-17 11:33N 35°28' E 139°41'0 0.0
2014-Oct-17 10:34N 35°28' E 139°41'0 0.0
2014-Oct-17 09:34N 35°28' E 139°41'1 1.0
2014-Oct-17 08:33N 35°27' E 139°41'2 1.6
2014-Oct-17 07:34N 35°27' E 139°39'0 0.3
2014-Oct-17 06:33N 35°27' E 139°39'0 0.0
2014-Oct-17 05:33N 35°27' E 139°39'0 0.0
2014-Oct-17 04:34N 35°27' E 139°39'0 0.0
2014-Oct-17 03:33N 35°27' E 139°39'0 0.0
2014-Oct-17 02:33N 35°27' E 139°39'0 0.0
2014-Oct-17 01:33N 35°27' E 139°39'0 0.0
2014-Oct-17 00:34N 35°27' E 139°39'0 0.0
2014-Oct-16 23:34N 35°27' E 139°39'0 0.0
2014-Oct-16 22:33N 35°27' E 139°39'0 0.0
2014-Oct-16 21:33N 35°27' E 139°39'0 0.0
2014-Oct-16 20:33N 35°27' E 139°39'0 0.0
2014-Oct-16 19:33N 35°27' E 139°39'0 0.0
2014-Oct-16 18:33N 35°27' E 139°39'0 0.0
2014-Oct-16 17:33N 35°27' E 139°39'0 0.0
2014-Oct-16 16:33N 35°27' E 139°39'0 0.0
2014-Oct-16 15:34N 35°27' E 139°39'0 0.0
2014-Oct-16 14:33N 35°27' E 139°39'0 0.0
2014-Oct-16 13:33N 35°27' E 139°39'0 0.0
2014-Oct-16 12:33N 35°27' E 139°39'0 0.0
2014-Oct-16 11:33N 35°27' E 139°39'0 0.0
2014-Oct-16 10:33N 35°27' E 139°39'0 0.0
2014-Oct-16 09:34N 35°27' E 139°39'0 0.0
2014-Oct-16 08:33N 35°27' E 139°39'0 0.0
2014-Oct-16 07:34N 35°27' E 139°39'2 1.9
2014-Oct-16 06:34N 35°28' E 139°41'1 0.7
2014-Oct-16 05:33N 35°28' E 139°41'1 0.9
2014-Oct-16 04:33N 35°27' E 139°41'1 1.4
2014-Oct-16 03:33N 35°26' E 139°42'1 1.0
2014-Oct-16 02:34N 35°27' E 139°42'0 0.0
2014-Oct-16 01:33N 35°27' E 139°42'1 0.9
2014-Oct-16 00:33N 35°28' E 139°42'2 0.4
2014-Oct-15 18:23N 35°27' E 139°39'0 0.0
2014-Oct-15 17:34N 35°27' E 139°39'0 0.0
2014-Oct-15 16:33N 35°27' E 139°39'0 0.0
2014-Oct-15 15:33N 35°27' E 139°39'0 0.0
2014-Oct-15 14:33N 35°27' E 139°39'0 0.0
2014-Oct-15 13:34N 35°27' E 139°39'0 0.0
2014-Oct-15 12:34N 35°27' E 139°39'0 0.0
2014-Oct-15 11:33N 35°27' E 139°39'0 0.0
2014-Oct-15 10:33N 35°27' E 139°39'2 1.6
2014-Oct-15 09:34N 35°27' E 139°41'3 2.9
2014-Oct-15 08:33N 35°25' E 139°43'2 2.2
2014-Oct-15 07:33N 35°27' E 139°42'0 0.0
2014-Oct-15 06:34N 35°27' E 139°42'5 5.1
2014-Oct-15 05:31N 35°31' E 139°46'1 0.9
2014-Oct-15 04:32N 35°30' E 139°47'6 6.3
2014-Oct-15 03:33N 35°24' E 139°45'4 3.5
2014-Oct-15 02:33N 35°26' E 139°42'2 2.3
2014-Oct-15 01:33N 35°27' E 139°39'0 0.0
2014-Oct-15 00:33N 35°27' E 139°39'3 2.6
2014-Oct-14 23:33N 35°25' E 139°42'2 1.9
2014-Oct-14 22:33N 35°24' E 139°41'3 2.7
2014-Oct-14 21:33N 35°26' E 139°42'2 2.0
2014-Oct-14 20:33N 35°27' E 139°39'0 0.0
2014-Oct-14 19:33N 35°27' E 139°39'0 0.0
2014-Oct-14 18:34N 35°27' E 139°39'0 0.0
2014-Oct-14 17:33N 35°27' E 139°39'0 0.0
2014-Oct-14 16:33N 35°27' E 139°39'0 0.0
2014-Oct-14 15:34N 35°27' E 139°39'0 0.0
2014-Oct-14 14:33N 35°27' E 139°39'0 0.0
2014-Oct-14 13:34N 35°27' E 139°39'0 0.0
2014-Oct-14 12:34N 35°27' E 139°39'0 0.0
2014-Oct-14 11:33N 35°27' E 139°39'0 0.0
2014-Oct-14 10:33N 35°27' E 139°39'0 0.0
2014-Oct-14 09:33N 35°27' E 139°39'0 0.0
2014-Oct-14 08:33N 35°27' E 139°39'0 0.0
2014-Oct-14 07:33N 35°27' E 139°39'0 0.0
2014-Oct-14 06:33N 35°27' E 139°39'0 0.0
2014-Oct-14 05:33N 35°27' E 139°39'1 0.8
2014-Oct-14 04:34N 35°27' E 139°40'1 0.7
2014-Oct-14 03:33N 35°27' E 139°39'0 0.0
2014-Oct-14 02:33N 35°27' E 139°39'0 0.0
2014-Oct-14 01:34N 35°27' E 139°39'0 0.0
2014-Oct-14 00:33N 35°27' E 139°39'0 0.0
2014-Oct-13 23:30N 35°27' E 139°39'0 0.0
2014-Oct-13 22:33N 35°27' E 139°39'0 0.0
2014-Oct-13 21:31N 35°27' E 139°39'0 0.0
2014-Oct-13 20:31N 35°27' E 139°39'0 0.0
2014-Oct-13 19:33N 35°27' E 139°39'0 0.0
2014-Oct-13 18:34N 35°27' E 139°39'0 0.0
2014-Oct-13 17:32N 35°27' E 139°39'0 0.0
2014-Oct-13 16:32N 35°27' E 139°39'0 0.0
2014-Oct-13 15:18N 35°27' E 139°39'0 0.0
2014-Oct-13 14:07N 35°27' E 139°39'0 0.0
2014-Oct-13 13:33N 35°27' E 139°39'0 0.0
2014-Oct-12 20:34N 35°27' E 139°39'0 0.0
2014-Oct-12 19:33N 35°27' E 139°39'0 0.0
2014-Oct-12 18:33N 35°27' E 139°39'0 0.0
2014-Oct-12 17:33N 35°27' E 139°39'0 0.0
2014-Oct-12 16:33N 35°27' E 139°39'0 0.0
2014-Oct-12 15:33N 35°27' E 139°39'0 0.0
2014-Oct-12 14:33N 35°27' E 139°39'0 0.0
2014-Oct-12 13:33N 35°27' E 139°39'0 0.0
2014-Oct-12 12:33N 35°27' E 139°39'0 0.0
2014-Oct-12 11:33N 35°27' E 139°39'0 0.0
2014-Oct-12 10:34N 35°27' E 139°39'0 0.0
2014-Oct-12 09:33N 35°27' E 139°39'0 0.0
2014-Oct-12 08:33N 35°27' E 139°39'0 0.0
2014-Oct-12 07:33N 35°27' E 139°39'0 0.0
2014-Oct-12 06:33N 35°27' E 139°39'0 0.0
2014-Oct-12 05:34N 35°27' E 139°39'0 0.0
2014-Oct-12 04:33N 35°27' E 139°39'0 0.0
2014-Oct-12 03:34N 35°27' E 139°39'0 0.0
2014-Oct-12 02:33N 35°27' E 139°39'0 0.0
2014-Oct-12 01:34N 35°27' E 139°39'0 0.0
2014-Oct-12 00:33N 35°27' E 139°39'0 0.0
2014-Oct-11 23:34N 35°27' E 139°39'0 0.0
2014-Oct-11 22:33N 35°27' E 139°39'0 0.0
2014-Oct-11 21:33N 35°27' E 139°39'0 0.0
2014-Oct-11 20:33N 35°27' E 139°39'0 0.0
2014-Oct-11 19:33N 35°27' E 139°39'0 0.0
2014-Oct-11 18:33N 35°27' E 139°39'0 0.0
2014-Oct-11 17:33N 35°27' E 139°39'0 0.0
2014-Oct-11 16:33N 35°27' E 139°39'0 0.0
2014-Oct-11 15:33N 35°27' E 139°39'0 0.0
2014-Oct-11 14:34N 35°27' E 139°39'0 0.0
2014-Oct-11 13:33N 35°27' E 139°39'0 0.0
2014-Oct-11 12:33N 35°27' E 139°39'0 0.0
2014-Oct-11 11:33N 35°27' E 139°39'0 0.0
2014-Oct-11 10:33N 35°27' E 139°39'0 0.0
2014-Oct-11 09:33N 35°27' E 139°39'0 0.0
2014-Oct-11 08:33N 35°27' E 139°39'0 0.0
2014-Oct-11 07:34N 35°27' E 139°39'0 0.0
2014-Oct-11 06:33N 35°27' E 139°39'0 0.0
2014-Oct-11 05:34N 35°27' E 139°39'0 0.0
2014-Oct-11 04:33N 35°27' E 139°39'0 0.0
2014-Oct-11 03:33N 35°27' E 139°39'  

Dump ship's entire track history